ADDS METAR Data INFO
IDs: Format: Raw Decoded Include TAF

Data at: 0257 UTC 17 Jan 2018

PHLI 170253Z 03015KT 10SM SCT040 24/18 A3013 RMK AO2 SLP200 T02440178 53002
PHLI 170153Z 04013KT 10SM SCT025 BKN032 25/18 A3012 RMK AO2 SLP196 T02500183
PHLI 170053Z 02013KT 10SM FEW025 SCT032 26/18 A3011 RMK AO2 SLP195 T02560183
PHLI 162353Z 04012KT 10SM CLR 26/18 A3012 RMK AO2 SLP198 T02610178 10267 20189 58020
PHLI 162253Z 03012KT 10SM CLR 27/18 A3015 RMK AO2 SLP206 T02670178
PHLI 162153Z 05010KT 10SM SCT032 26/18 A3017 RMK AO2 SLP215 T02610178
PHLI 162053Z COR 05012KT 10SM SCT032 26/18 A3018 RMK AO2 SLP217 T02610178 50009
PHLI 161953Z 04009KT 10SM BKN032 25/17 A3019 RMK AO2 SLP219 T02500172
PHLI 161853Z 35004KT 10SM SCT029 23/18 A3017 RMK AO2 SLP214 T02280183
PHLI 161753Z 31005KT 10SM BKN034 19/17 A3016 RMK AO2 SLP210 T01890172 10211 20183 51008
PHLI 161653Z 32004KT 10SM CLR 19/17 A3015 RMK AO2 SLP209 T01890167
PHLI 161553Z AUTO 35005KT 10SM FEW024 BKN033 21/18 A3014 RMK AO2 SLP204 T02060178 TSNO
PHLI 161534Z AUTO 36007KT 10SM SCT027 OVC032 21/18 A3014 RMK AO2 T02110178 TSNO
PHLI 161453Z AUTO 31005KT 10SM OVC029 20/18 A3013 RMK AO2 SLP202 T02000178 53002 TSNO
PHLI 161433Z AUTO 29005KT 10SM BKN029 OVC035 19/18 A3013 RMK AO2 T01940178 TSNO
PHLI 161353Z AUTO 30004KT 10SM SCT036 19/17 A3013 RMK AO2 SLP200 T01890172 TSNO
PHLI 161315Z AUTO 35006KT 10SM SCT029 OVC035 21/18 A3013 RMK AO2 T02060178 TSNO
PHLI 161253Z AUTO 31004KT 10SM FEW022 OVC028 19/18 A3013 RMK AO2 SLP200 T01940178 TSNO
PHLI 161246Z AUTO 30004KT 10SM FEW022 BKN028 OVC033 19/18 A3013 RMK AO2 T01940178 TSNO
PHLI 161153Z AUTO 32004KT 10SM CLR 19/17 A3013 RMK AO2 SLP200 T01940172 10228 20194 58007 TSNO
PHLI 161122Z AUTO 36005KT 10SM SCT026 BKN032 21/18 A3014 RMK AO2 T02060178 TSNO
PHLI 161108Z AUTO 34005KT 10SM BKN028 21/18 A3014 RMK AO2 T02060178 TSNO
PHLI 161053Z AUTO 30003KT 10SM FEW026 SCT032 20/17 A3014 RMK AO2 SLP203 T02000172 TSNO
PHLI 160953Z AUTO 04006KT 10SM FEW026 FEW035 21/17 A3014 RMK AO2 SLP206 T02060172 402610178 TSNO
PHLI 160909Z AUTO 00000KT 10SM SCT025 OVC035 21/18 A3015 RMK AO2 T02110183 TSNO
PHLI 160853Z AUTO 36003KT 10SM BKN025 OVC033 22/18 A3015 RMK AO2 SLP206 T02170183 51010 TSNO
PHLI 160836Z AUTO 31004KT 10SM BKN025 BKN030 21/18 A3015 RMK AO2 T02110183 TSNO
PHLI 160753Z 02007KT 10SM FEW033 22/18 A3015 RMK AO2 SLP206 LAST T02220178
PHLI 160653Z 03011KT 10SM CLR 22/18 A3013 RMK AO2 SLP201 T02220183
PHLI 160553Z 04012KT 10SM SCT022 SCT026 23/19 A3012 RMK AO2 SLP197 T02280189 10261 20222 53019
PHLI 160453Z 04012KT 10SM SCT021 SCT028 23/19 A3009 RMK AO2 SLP188 T02280189
PHLI 160353Z 04012KT 10SM FEW023 23/19 A3008 RMK AO2 SLP182 T02280189
PHLI 160253Z COR 04012KT 10SM FEW016 SCT033 24/19 A3006 RMK AO2 SLP178 T02390194 53004
PHLI 160153Z 02013KT 10SM FEW016 FEW032 24/19 A3004 RMK AO2 SLP171 T02440194
PHLI 160053Z 04012KT 10SM FEW016 26/19 A3004 RMK AO2 SLP170 T02560194
PHLI 152353Z 05008KT 10SM CLR 26/20 A3005 RMK AO2 SLP173 T02560200 10261 20178 58031
PHLI 152253Z 04010KT 10SM CLR 26/20 A3008 RMK AO2 SLP184 T02560200
PHLI 152153Z 03009KT 10SM CLR 26/20 A3012 RMK AO2 SLP196 T02560200
PHLI 152053Z 02009KT 10SM CLR 26/20 A3014 RMK AO2 SLP205 T02560200 50009
PHLI 151953Z 01005KT 10SM FEW021 BKN033 24/20 A3014 RMK AO2 SLP206 T02390200
PHLI 151853Z 28007KT 10SM SCT019 BKN031 20/18 A3013 RMK AO2 SLP200 T02000178
PHLI 151753Z 29008KT 10SM CLR 18/16 A3012 RMK AO2 SLP196 T01780161 10183 20178 53007
PHLI 151736Z 28009KT 10SM FEW027 18/16 A3011 RMK AO2 T01780161
PHLI 151723Z 28008KT 10SM FEW022 BKN027 18/17 A3011 RMK AO2 T01830167
PHLI 151653Z 28008KT 10SM CLR 18/16 A3010 RMK AO2 SLP191 T01780161
PHLI 151553Z 28007KT 10SM CLR 18/16 A3009 RMK AO2 SLP187 T01780161